createdAt,value
2024-01-19T00:01:35.177Z,11.65
2024-01-19T00:04:03.290Z,11.98
2024-01-19T00:06:31.202Z,12.70
2024-01-19T00:08:59.779Z,11.95
2024-01-19T00:11:27.856Z,12.90
2024-01-19T00:13:55.780Z,10.35
2024-01-19T00:16:25.338Z,10.75
2024-01-19T00:18:53.974Z,12.02
2024-01-19T00:21:22.162Z,13.13
2024-01-19T00:23:51.135Z,10.82
2024-01-19T00:26:19.996Z,12.15
2024-01-19T00:28:48.020Z,9.75
2024-01-19T00:31:16.432Z,12.45
2024-01-19T00:33:47.816Z,10.55
2024-01-19T00:36:15.868Z,10.45
2024-01-19T00:38:44.629Z,11.35
2024-01-19T00:41:14.396Z,11.55
2024-01-19T00:43:42.219Z,13.52
2024-01-19T00:46:10.355Z,11.00
2024-01-19T00:48:38.441Z,12.10
2024-01-19T00:51:08.341Z,12.25
2024-01-19T00:53:38.906Z,11.48
2024-01-19T00:56:08.344Z,11.82
2024-01-19T00:58:36.605Z,12.30
2024-01-19T01:01:05.988Z,8.23
2024-01-19T01:03:34.189Z,12.90
2024-01-19T01:06:02.698Z,7.70
2024-01-19T01:08:32.031Z,9.40
2024-01-19T01:10:59.889Z,10.10
2024-01-19T01:13:27.902Z,9.63
2024-01-19T01:15:55.778Z,8.70
2024-01-19T01:18:23.993Z,10.75
2024-01-19T01:20:53.136Z,8.93
2024-01-19T01:23:21.373Z,9.40
2024-01-19T01:25:50.578Z,10.20
2024-01-19T01:28:18.440Z,7.78
2024-01-19T01:30:46.445Z,10.40
2024-01-19T01:33:15.049Z,9.65
2024-01-19T01:35:42.922Z,10.18
2024-01-19T01:38:10.832Z,12.10
2024-01-19T01:40:38.782Z,8.13
2024-01-19T01:43:08.316Z,9.77
2024-01-19T01:45:36.304Z,12.00
2024-01-19T01:48:05.482Z,10.52
2024-01-19T01:50:33.847Z,8.88
2024-01-19T01:53:03.484Z,10.77
2024-01-19T01:55:31.645Z,8.57
2024-01-19T01:57:59.939Z,10.83
2024-01-19T02:00:32.040Z,9.45
2024-01-19T02:03:02.300Z,9.18
2024-01-19T02:05:30.547Z,9.50
2024-01-19T02:07:58.624Z,9.93
2024-01-19T02:10:26.396Z,9.70
2024-01-19T02:12:55.109Z,9.38
2024-01-19T02:15:24.408Z,9.25
2024-01-19T02:17:55.481Z,9.15
2024-01-19T02:20:24.048Z,9.85
2024-01-19T02:22:55.019Z,9.77
2024-01-19T02:25:25.689Z,11.90
2024-01-19T02:27:54.568Z,9.98
2024-01-19T02:30:22.598Z,8.80
2024-01-19T02:32:50.456Z,8.98
2024-01-19T02:35:18.444Z,7.67
2024-01-19T02:37:46.483Z,9.30
2024-01-19T02:40:14.913Z,9.43
2024-01-19T02:42:45.240Z,8.38
2024-01-19T02:45:13.078Z,9.48
2024-01-19T02:47:41.082Z,8.67
2024-01-19T02:50:09.785Z,8.15
2024-01-19T02:52:37.983Z,10.43
2024-01-19T02:55:07.105Z,10.38
2024-01-19T02:57:34.956Z,9.55
2024-01-19T03:00:05.000Z,9.13
2024-01-19T03:02:32.827Z,8.27
2024-01-19T03:05:00.703Z,9.85
2024-01-19T03:07:28.924Z,9.20
2024-01-19T03:09:57.086Z,11.65
2024-01-19T03:12:25.160Z,12.37
2024-01-19T03:14:53.043Z,10.85
2024-01-19T03:17:22.484Z,10.40
2024-01-19T03:19:51.681Z,9.60
2024-01-19T03:22:19.977Z,8.93
2024-01-19T03:24:47.924Z,11.70
2024-01-19T03:27:15.784Z,10.85
2024-01-19T03:29:44.477Z,13.55
2024-01-19T03:32:12.292Z,10.18
2024-01-19T03:34:41.897Z,9.32
2024-01-19T03:37:09.798Z,9.87
2024-01-19T03:39:37.603Z,11.88
2024-01-19T03:42:05.775Z,11.13
2024-01-19T03:44:33.700Z,10.13
2024-01-19T03:47:02.808Z,10.40
2024-01-19T03:49:30.755Z,11.00
2024-01-19T03:52:00.885Z,10.63
2024-01-19T03:54:28.861Z,12.98
2024-01-19T03:56:59.756Z,9.45
2024-01-19T03:59:27.959Z,9.63
2024-01-19T04:01:56.478Z,9.97
2024-01-19T04:04:27.984Z,11.88
2024-01-19T04:06:56.984Z,11.23
2024-01-19T04:09:27.070Z,10.30
2024-01-19T04:11:55.270Z,10.35
2024-01-19T04:14:23.937Z,8.60
2024-01-19T04:16:52.015Z,12.30
2024-01-19T04:19:20.220Z,10.85
2024-01-19T04:21:47.997Z,12.23
2024-01-19T04:24:16.074Z,12.05
2024-01-19T04:26:45.762Z,10.55
2024-01-19T04:29:13.738Z,11.82
2024-01-19T04:31:41.718Z,9.57
2024-01-19T04:34:10.204Z,9.23
2024-01-19T04:36:38.305Z,10.80
2024-01-19T04:39:06.248Z,13.68
2024-01-19T04:41:34.310Z,10.18
2024-01-19T04:44:04.142Z,14.55
2024-01-19T04:46:32.439Z,11.48
2024-01-19T04:49:00.620Z,11.52
2024-01-19T04:51:28.485Z,11.57
2024-01-19T04:53:59.965Z,12.20
2024-01-19T04:56:28.127Z,13.38
2024-01-19T04:58:56.188Z,12.32
2024-01-19T05:01:25.363Z,12.48
2024-01-19T05:03:53.217Z,14.27
2024-01-19T05:06:21.340Z,10.60
2024-01-19T05:08:49.403Z,13.25
2024-01-19T05:11:17.254Z,12.27
2024-01-19T05:13:45.386Z,11.07
2024-01-19T05:16:13.484Z,12.57
2024-01-19T05:18:42.755Z,14.32
2024-01-19T05:21:10.787Z,11.85
2024-01-19T05:23:38.736Z,13.27
2024-01-19T05:26:06.854Z,13.38
2024-01-19T05:28:36.075Z,11.90
2024-01-19T05:31:04.608Z,15.20
2024-01-19T05:33:35.549Z,17.02
2024-01-19T05:36:07.559Z,15.20
2024-01-19T05:38:35.711Z,13.95
2024-01-19T05:41:04.195Z,14.73
2024-01-19T05:43:32.369Z,16.35
2024-01-19T05:46:00.379Z,13.70
2024-01-19T05:48:28.592Z,15.27
2024-01-19T05:50:57.170Z,14.68
2024-01-19T05:53:26.533Z,12.85
2024-01-19T05:55:54.659Z,15.88
2024-01-19T05:58:22.654Z,13.23
2024-01-19T06:00:51.505Z,15.43
2024-01-19T06:03:20.055Z,14.65
2024-01-19T06:05:48.545Z,14.40
2024-01-19T06:08:17.971Z,17.65
2024-01-19T06:10:46.659Z,16.33
2024-01-19T06:13:14.724Z,14.95
2024-01-19T06:15:42.674Z,16.90
2024-01-19T06:18:11.226Z,19.73
2024-01-19T06:20:42.385Z,19.38
2024-01-19T06:23:11.123Z,17.73
2024-01-19T06:25:40.476Z,19.45
2024-01-19T06:28:10.493Z,17.48
2024-01-19T06:30:38.722Z,19.23
2024-01-19T06:33:07.811Z,16.85
2024-01-19T06:35:36.538Z,21.38
2024-01-19T06:38:05.596Z,20.60
2024-01-19T06:40:33.527Z,20.38
2024-01-19T06:43:01.720Z,21.23
2024-01-19T06:45:31.967Z,22.90
2024-01-19T06:47:59.939Z,25.48
2024-01-19T06:50:28.192Z,23.27
2024-01-19T06:52:58.409Z,23.67
2024-01-19T06:55:27.819Z,22.67
2024-01-19T06:57:56.873Z,22.23
2024-01-19T07:00:25.469Z,23.08
2024-01-19T07:02:55.681Z,20.95
2024-01-19T07:05:23.754Z,26.05
2024-01-19T07:07:51.553Z,26.02
2024-01-19T07:10:20.065Z,24.33
2024-01-19T07:12:48.025Z,27.63
2024-01-19T07:15:16.186Z,25.88
2024-01-19T07:17:44.669Z,28.83
2024-01-19T07:20:15.090Z,23.97
2024-01-19T07:22:43.235Z,24.77
2024-01-19T07:25:11.816Z,28.25
2024-01-19T07:27:39.756Z,27.75
2024-01-19T07:30:08.462Z,21.90
2024-01-19T07:32:51.189Z,28.48
2024-01-19T07:35:25.665Z,23.20
2024-01-19T07:37:53.656Z,24.65
2024-01-19T07:40:21.838Z,30.08
2024-01-19T07:42:49.749Z,27.30
2024-01-19T07:45:17.584Z,31.77
2024-01-19T07:47:45.565Z,28.38
2024-01-19T07:50:13.407Z,27.52
2024-01-19T07:52:42.791Z,28.30
2024-01-19T07:55:10.807Z,32.03
2024-01-19T07:57:39.084Z,26.87
2024-01-19T08:00:09.872Z,28.65
2024-01-19T08:02:38.591Z,24.83
2024-01-19T08:05:07.135Z,24.98
2024-01-19T08:07:35.007Z,28.13
2024-01-19T08:10:04.495Z,33.07
2024-01-19T08:12:32.662Z,34.63
2024-01-19T08:15:00.628Z,25.75
2024-01-19T08:17:28.688Z,24.92
2024-01-19T08:19:56.622Z,26.48
2024-01-19T08:22:24.588Z,26.37
2024-01-19T08:24:53.789Z,27.83
2024-01-19T08:27:23.308Z,24.63
2024-01-19T08:29:51.255Z,26.48
2024-01-19T08:32:19.448Z,29.30
2024-01-19T08:34:47.680Z,25.27
2024-01-19T08:37:16.525Z,25.30
2024-01-19T08:39:46.292Z,26.95
2024-01-19T08:42:14.386Z,29.52
2024-01-19T08:44:46.636Z,28.10
2024-01-19T08:47:16.044Z,25.80
2024-01-19T08:49:44.171Z,23.10
2024-01-19T08:52:12.148Z,27.40
2024-01-19T08:54:40.358Z,26.38
2024-01-19T08:57:08.736Z,22.95
2024-01-19T08:59:37.020Z,24.20
2024-01-19T09:02:06.340Z,23.55
2024-01-19T09:04:35.109Z,19.15
2024-01-19T09:07:04.310Z,23.60
2024-01-19T09:09:32.504Z,18.95
2024-01-19T09:12:00.680Z,19.70
2024-01-19T09:14:28.906Z,20.60
2024-01-19T09:16:57.232Z,23.15
2024-01-19T09:19:26.645Z,18.77
2024-01-19T09:21:54.511Z,19.33
2024-01-19T09:24:22.765Z,19.93
2024-01-19T09:26:50.699Z,17.42
2024-01-19T09:29:18.900Z,20.83
2024-01-19T09:31:48.356Z,19.77
2024-01-19T09:34:16.769Z,17.02
2024-01-19T09:36:46.098Z,16.87
2024-01-19T09:39:15.680Z,16.02
2024-01-19T09:41:49.242Z,15.00
2024-01-19T09:44:20.837Z,18.15
2024-01-19T09:47:08.171Z,18.10
2024-01-19T09:49:47.678Z,16.57
2024-01-19T09:52:26.425Z,16.80
2024-01-19T09:54:56.002Z,15.43
2024-01-19T09:57:24.214Z,14.38
2024-01-19T09:59:52.216Z,16.48
2024-01-19T10:02:22.465Z,16.47
2024-01-19T10:04:54.362Z,13.93
2024-01-19T10:07:24.533Z,16.35
2024-01-19T10:09:53.628Z,19.60
2024-01-19T10:12:23.346Z,17.23
2024-01-19T10:14:51.291Z,19.50
2024-01-19T10:17:19.778Z,18.83
2024-01-19T10:19:51.271Z,15.38
2024-01-19T10:22:30.762Z,14.18
2024-01-19T10:25:03.743Z,17.35
2024-01-19T10:27:42.573Z,18.43
2024-01-19T10:30:12.847Z,15.05
2024-01-19T10:32:41.820Z,18.73
2024-01-19T10:35:12.492Z,17.15
2024-01-19T10:37:42.093Z,15.15
2024-01-19T10:40:19.093Z,16.83
2024-01-19T10:42:49.662Z,13.88
2024-01-19T10:45:20.099Z,18.23
2024-01-19T10:47:49.718Z,14.13
2024-01-19T10:50:19.179Z,16.83
2024-01-19T10:52:50.029Z,13.97
2024-01-19T10:55:22.856Z,14.82
2024-01-19T10:57:56.024Z,16.52
2024-01-19T11:00:27.472Z,12.52
2024-01-19T11:02:58.022Z,17.45
2024-01-19T11:05:26.843Z,16.13
2024-01-19T11:07:56.987Z,16.08
2024-01-19T11:10:27.496Z,15.07
2024-01-19T11:12:57.572Z,15.32
2024-01-19T11:15:39.435Z,15.60
2024-01-19T11:18:08.784Z,16.73
2024-01-19T11:20:36.984Z,14.43
2024-01-19T11:23:07.776Z,17.30
2024-01-19T11:25:50.271Z,15.27
2024-01-19T11:28:24.553Z,15.77
2024-01-19T11:31:04.870Z,14.83
2024-01-19T11:33:34.281Z,15.18
2024-01-19T11:36:02.603Z,14.60
2024-01-19T11:38:49.474Z,17.63
2024-01-19T11:41:45.206Z,16.20
2024-01-19T11:44:42.006Z,15.60
2024-01-19T11:47:09.947Z,15.88
2024-01-19T11:49:50.595Z,15.43
2024-01-19T11:52:41.615Z,17.77
2024-01-19T11:55:39.642Z,15.13
2024-01-19T11:58:27.180Z,15.80
2024-01-19T12:00:56.274Z,18.73
2024-01-19T12:03:24.566Z,18.85
2024-01-19T12:05:55.389Z,15.02
2024-01-19T12:08:23.520Z,13.20
2024-01-19T12:11:04.020Z,14.97
2024-01-19T12:13:33.432Z,14.85
2024-01-19T12:16:02.734Z,15.73
2024-01-19T12:18:31.093Z,16.23
2024-01-19T12:20:59.373Z,16.15
2024-01-19T12:23:27.571Z,16.63
2024-01-19T12:25:59.721Z,19.52
2024-01-19T12:28:30.133Z,15.05
2024-01-19T12:30:58.084Z,17.40
2024-01-19T12:33:30.169Z,15.57
2024-01-19T12:36:07.934Z,19.67
2024-01-19T12:38:36.691Z,15.07
2024-01-19T12:41:06.574Z,15.65
2024-01-19T12:43:36.003Z,16.17
2024-01-19T12:46:07.078Z,16.08
2024-01-19T12:48:36.545Z,15.73
2024-01-19T12:51:07.283Z,14.63
2024-01-19T12:53:36.902Z,18.77
2024-01-19T12:56:23.200Z,17.08
2024-01-19T12:58:52.586Z,15.55
2024-01-19T13:01:21.848Z,12.83
2024-01-19T13:03:50.332Z,16.52
2024-01-19T13:06:18.366Z,17.50
2024-01-19T13:08:46.379Z,18.33
2024-01-19T13:11:14.445Z,19.27
2024-01-19T13:13:42.324Z,22.30
2024-01-19T13:16:14.822Z,17.23
2024-01-19T13:18:43.983Z,18.23
2024-01-19T13:21:16.359Z,19.02
2024-01-19T13:23:45.463Z,19.60
2024-01-19T13:26:18.643Z,16.97
2024-01-19T13:28:47.817Z,19.80
2024-01-19T13:31:17.564Z,18.20
2024-01-19T13:33:46.633Z,18.75
2024-01-19T13:36:15.804Z,19.50
2024-01-19T13:38:44.155Z,17.00
2024-01-19T13:41:13.152Z,15.98
2024-01-19T13:43:45.087Z,19.50
2024-01-19T13:46:15.229Z,17.98
2024-01-19T13:48:45.239Z,16.65
2024-01-19T13:51:13.409Z,20.13
2024-01-19T13:53:41.263Z,19.95
2024-01-19T13:56:09.945Z,24.17
2024-01-19T13:58:39.188Z,24.90
2024-01-19T14:01:08.234Z,22.17
2024-01-19T14:03:37.392Z,21.80
2024-01-19T14:06:07.989Z,24.65
2024-01-19T14:08:37.093Z,20.55
2024-01-19T14:11:08.178Z,21.17
2024-01-19T14:13:36.597Z,23.02
2024-01-19T14:16:05.159Z,29.07
2024-01-19T14:18:36.654Z,22.27
2024-01-19T14:21:07.315Z,25.70
2024-01-19T14:23:35.496Z,25.83
2024-01-19T14:26:03.939Z,24.40
2024-01-19T14:28:33.585Z,27.63
2024-01-19T14:31:01.977Z,23.45
2024-01-19T14:33:29.955Z,24.05
2024-01-19T14:35:58.173Z,23.45
2024-01-19T14:38:27.715Z,25.17
2024-01-19T14:40:55.681Z,23.57
2024-01-19T14:43:25.846Z,29.00
2024-01-19T14:45:55.279Z,29.23
2024-01-19T14:48:24.917Z,28.90
2024-01-19T14:50:53.419Z,29.70
2024-01-19T14:53:21.870Z,30.50
2024-01-19T14:55:51.204Z,25.27
2024-01-19T14:58:19.592Z,29.95
2024-01-19T15:00:48.506Z,34.92
2024-01-19T15:03:16.564Z,29.38
2024-01-19T15:05:44.562Z,26.97
2024-01-19T15:08:12.550Z,28.80
2024-01-19T15:10:40.624Z,29.63
2024-01-19T15:13:11.922Z,28.13
2024-01-19T15:15:39.959Z,32.25
2024-01-19T15:18:08.705Z,29.67
2024-01-19T15:20:36.587Z,32.45
2024-01-19T15:23:13.373Z,29.20
2024-01-19T15:25:42.138Z,30.60
2024-01-19T15:28:10.273Z,30.03
2024-01-19T15:30:43.567Z,31.80
2024-01-19T15:33:13.039Z,29.27
2024-01-19T15:35:41.134Z,25.67
2024-01-19T15:38:09.732Z,29.73
2024-01-19T15:40:39.076Z,28.83
2024-01-19T15:43:07.307Z,32.35
2024-01-19T15:45:35.281Z,24.35
2024-01-19T15:48:03.484Z,28.27
2024-01-19T15:50:31.834Z,27.48
2024-01-19T15:52:59.928Z,25.10
2024-01-19T15:55:29.137Z,25.80
2024-01-19T15:57:58.588Z,27.25
2024-01-19T16:00:26.881Z,27.73
2024-01-19T16:02:54.751Z,28.25
2024-01-19T16:05:22.920Z,28.00
2024-01-19T16:07:51.006Z,25.80
2024-01-19T16:10:20.038Z,28.27
2024-01-19T16:12:48.110Z,26.98
2024-01-19T16:15:19.552Z,27.98
2024-01-19T16:17:47.647Z,23.53
2024-01-19T16:20:15.733Z,26.38
2024-01-19T16:22:43.780Z,28.50
2024-01-19T16:25:11.738Z,28.80
2024-01-19T16:27:39.942Z,24.35
2024-01-19T16:30:08.698Z,25.27
2024-01-19T16:32:38.918Z,24.98
2024-01-19T16:35:07.872Z,24.35
2024-01-19T16:37:36.019Z,22.65
2024-01-19T16:40:04.018Z,24.73
2024-01-19T16:42:33.462Z,21.23
2024-01-19T16:45:03.749Z,24.58
2024-01-19T16:47:32.912Z,26.30
2024-01-19T16:50:02.317Z,24.38
2024-01-19T16:52:30.903Z,22.23
2024-01-19T16:54:58.823Z,27.83
2024-01-19T16:57:26.827Z,26.55
2024-01-19T16:59:54.800Z,27.25
2024-01-19T17:02:22.805Z,25.75
2024-01-19T17:04:50.904Z,24.65
2024-01-19T17:07:20.231Z,27.70
2024-01-19T17:09:49.079Z,26.50
2024-01-19T17:12:16.988Z,27.15
2024-01-19T17:14:45.064Z,22.90
2024-01-19T17:17:13.046Z,27.42
2024-01-19T17:19:41.222Z,22.90
2024-01-19T17:22:09.062Z,26.20
2024-01-19T17:24:40.580Z,25.15
2024-01-19T17:27:08.590Z,23.27
2024-01-19T17:29:36.766Z,23.65
2024-01-19T17:32:08.231Z,25.60
2024-01-19T17:34:36.411Z,22.50
2024-01-19T17:37:08.956Z,25.25
2024-01-19T17:39:37.142Z,22.48
2024-01-19T17:42:06.931Z,21.48
2024-01-19T17:44:34.869Z,23.30
2024-01-19T17:47:03.256Z,22.83
2024-01-19T17:49:31.242Z,26.50
2024-01-19T17:51:59.262Z,24.40
2024-01-19T17:54:31.918Z,29.02
2024-01-19T17:57:00.134Z,26.63
2024-01-19T17:59:29.267Z,24.30
2024-01-19T18:01:57.524Z,21.77
2024-01-19T18:04:25.443Z,23.00
2024-01-19T18:06:53.811Z,24.92
2024-01-19T18:09:23.795Z,21.30
2024-01-19T18:11:52.680Z,20.25
2024-01-19T18:14:20.692Z,22.25
2024-01-19T18:16:50.078Z,22.92
2024-01-19T18:19:19.007Z,20.63
2024-01-19T18:21:47.846Z,25.23
2024-01-19T18:24:15.908Z,24.90
2024-01-19T18:26:46.344Z,25.50
2024-01-19T18:29:16.570Z,23.77
2024-01-19T18:31:46.001Z,22.02
2024-01-19T18:34:15.343Z,29.70
2024-01-19T18:36:43.375Z,20.38
2024-01-19T18:39:15.607Z,20.50
2024-01-19T18:41:44.089Z,23.33
2024-01-19T18:44:12.033Z,20.52
2024-01-19T18:46:47.698Z,24.17
2024-01-19T18:49:17.094Z,23.70
2024-01-19T18:51:45.650Z,24.33
2024-01-19T18:54:14.840Z,24.05
2024-01-19T18:56:43.073Z,23.08
2024-01-19T18:59:11.580Z,22.87
2024-01-19T19:01:39.558Z,23.00
2024-01-19T19:04:08.502Z,22.60
2024-01-19T19:06:39.748Z,27.17
2024-01-19T19:09:08.061Z,28.48
2024-01-19T19:11:36.305Z,23.57
2024-01-19T19:14:04.486Z,24.88
2024-01-19T19:16:38.771Z,25.05
2024-01-19T19:19:15.702Z,26.88
2024-01-19T19:21:44.989Z,30.35
2024-01-19T19:24:13.291Z,24.00
2024-01-19T19:26:41.410Z,23.33
2024-01-19T19:29:09.436Z,24.55
2024-01-19T19:31:39.703Z,26.75
2024-01-19T19:34:08.060Z,20.33
2024-01-19T19:36:36.496Z,25.53
2024-01-19T19:39:05.794Z,27.77
2024-01-19T19:41:34.893Z,24.42
2024-01-19T19:44:02.985Z,26.42
2024-01-19T19:46:30.910Z,25.90
2024-01-19T19:48:59.103Z,26.73
2024-01-19T19:51:28.269Z,24.85
2024-01-19T19:53:56.506Z,24.33
2024-01-19T19:56:25.846Z,25.88
2024-01-19T19:58:53.939Z,24.08
2024-01-19T20:01:25.805Z,21.63
2024-01-19T20:03:54.056Z,27.45
2024-01-19T20:06:25.904Z,26.27
2024-01-19T20:08:53.976Z,24.35
2024-01-19T20:11:23.046Z,24.52
2024-01-19T20:13:53.304Z,25.23
2024-01-19T20:16:21.967Z,25.33
2024-01-19T20:18:49.958Z,27.23
2024-01-19T20:21:17.907Z,23.17
2024-01-19T20:23:46.103Z,20.60
2024-01-19T20:26:16.593Z,22.83
2024-01-19T20:28:45.467Z,23.70
2024-01-19T20:31:15.135Z,25.85
2024-01-19T20:33:43.644Z,23.90
2024-01-19T20:36:11.840Z,24.05
2024-01-19T20:38:39.653Z,30.37
2024-01-19T20:41:10.997Z,24.38
2024-01-19T20:43:39.095Z,25.13
2024-01-19T20:46:07.063Z,27.27
2024-01-19T20:48:37.085Z,25.08
2024-01-19T20:51:06.408Z,22.70
2024-01-19T20:53:34.374Z,22.67
2024-01-19T20:56:02.270Z,24.13
2024-01-19T20:58:30.439Z,26.45
2024-01-19T21:00:58.682Z,25.02
2024-01-19T21:03:30.485Z,24.30
2024-01-19T21:06:00.463Z,27.48
2024-01-19T21:08:29.189Z,25.33
2024-01-19T21:11:00.309Z,28.52
2024-01-19T21:13:31.251Z,26.25
2024-01-19T21:15:59.993Z,26.20
2024-01-19T21:18:28.217Z,30.63
2024-01-19T21:20:58.812Z,29.75
2024-01-19T21:23:29.415Z,27.42
2024-01-19T21:25:58.093Z,29.42
2024-01-19T21:28:26.102Z,28.73
2024-01-19T21:30:54.305Z,29.13
2024-01-19T21:33:24.014Z,26.75
2024-01-19T21:35:54.602Z,29.98
2024-01-19T21:38:25.483Z,31.67
2024-01-19T21:40:55.992Z,31.03
2024-01-19T21:43:24.797Z,31.33
2024-01-19T21:45:54.808Z,29.55
2024-01-19T21:48:22.989Z,28.42
2024-01-19T21:50:52.930Z,32.05
2024-01-19T21:53:21.097Z,32.72
2024-01-19T21:55:50.270Z,28.98
2024-01-19T21:58:19.739Z,31.85
2024-01-19T22:00:48.188Z,32.53
2024-01-19T22:03:16.283Z,31.15
2024-01-19T22:05:44.821Z,27.67
2024-01-19T22:08:13.502Z,34.58
2024-01-19T22:10:41.828Z,31.70
2024-01-19T22:13:10.312Z,28.55
2024-01-19T22:15:39.522Z,30.67
2024-01-19T22:18:07.629Z,32.57
2024-01-19T22:20:35.776Z,29.33
2024-01-19T22:23:03.893Z,32.20
2024-01-19T22:25:32.387Z,29.17
2024-01-19T22:28:00.421Z,33.40
2024-01-19T22:30:29.089Z,31.27
2024-01-19T22:32:58.777Z,28.38
2024-01-19T22:35:27.156Z,33.42
2024-01-19T22:37:55.442Z,29.63
2024-01-19T22:40:23.645Z,31.23
2024-01-19T22:42:52.297Z,30.50
2024-01-19T22:45:20.841Z,29.65
2024-01-19T22:47:49.093Z,29.40
2024-01-19T22:50:18.658Z,29.73
2024-01-19T22:52:46.828Z,28.02
2024-01-19T22:55:19.878Z,31.92
2024-01-19T22:57:48.289Z,28.95
2024-01-19T23:00:20.470Z,27.95
2024-01-19T23:02:48.356Z,30.52
2024-01-19T23:05:16.324Z,27.83
2024-01-19T23:07:46.842Z,34.00
2024-01-19T23:10:15.244Z,31.48
2024-01-19T23:12:43.334Z,32.28
2024-01-19T23:15:13.562Z,32.67
2024-01-19T23:17:44.472Z,30.80
2024-01-19T23:20:13.640Z,28.87
2024-01-19T23:22:41.774Z,31.02
2024-01-19T23:25:16.549Z,29.92
2024-01-19T23:27:50.826Z,28.98
2024-01-19T23:30:19.484Z,32.38
2024-01-19T23:32:47.629Z,29.73
2024-01-19T23:35:16.103Z,29.20
2024-01-19T23:37:44.246Z,28.80
2024-01-19T23:40:14.188Z,29.45
2024-01-19T23:42:42.203Z,29.63
2024-01-19T23:45:10.752Z,27.20
2024-01-19T23:47:38.860Z,27.95
2024-01-19T23:50:08.186Z,31.67
2024-01-19T23:52:36.588Z,33.45
2024-01-19T23:55:05.281Z,28.02
2024-01-19T23:57:34.820Z,27.83
